KBLF/BLF METAR and TAF weather

Enter ICAO airport designator
Station Type Date Time Source
KBLF METAR 2019/04/21 22:28 UTC NOAA

KBLF 212228Z AUTO VRB04KT 10SM BKN028 09/02 A3013 RMK AO2 T00890022


Station Type Date Time Source
KBLF Decoded METAR 2019/04/21 22:28 UTC NOAA

BLUEFIELD MERCER COUNTY AIRPORT , WV, United States (KBLF) 37-18N 081-12W 873M
Apr 21, 2019 - 06:28 PM EDT / 2019.04.21 2228 UTC
Wind: Variable at 5 MPH (4 KT):0
Visibility: 10 mile(s):0
Sky conditions: mostly cloudy
Temperature: 48.0 F (8.9 C)
Dew Point: 36.0 F (2.2 C)
Relative Humidity: 62%
Pressure (altimeter): 30.13 in. Hg (1020 hPa)
ob: KBLF 212228Z AUTO VRB04KT 10SM BKN028 09/02 A3013 RMK AO2 T00890022
cycle: 22

Station Type Date Time Source
KBLF TAF 2019/04/21 18:39 UTC NOAA

TAF KBLF 211736Z 2118/2218 30005KT P6SM OVC018
FM212000 30006KT P6SM BKN022
FM220100 30005KT P6SM BKN015
FM220600 26005KT P6SM BKN008
FM221400 31005KT P6SM SCT016

Example: see airport list